Time;durP1;ratioP1;P1;durP2;ratioP2;P2;SDS_P1;SDS_P2;PMS_P1;PMS_P2;Temp;Humidity;BMP_temperature;BMP_pressure;BME280_temperature;BME280_humidity;BME280_pressure;Samples;Min_cycle;Max_cycle;Signal;HPM_P1;HPM_P2
2022/10/17 00:00:49;;;;;;;14.03;9.47;;;;;;;12.78;100.00;101403.81;5115292;28;20028;-82
2022/10/17 00:03:15;;;;;;;13.65;9.57;;;;;;;12.80;100.00;101399.00;5080095;28;20028;-81
2022/10/17 00:05:42;;;;;;;13.77;9.47;;;;;;;12.80;100.00;101399.00;5096696;28;20034;-81
2022/10/17 00:08:10;;;;;;;14.27;9.60;;;;;;;12.85;100.00;101401.06;5115669;28;20058;-81
2022/10/17 00:10:36;;;;;;;15.52;9.20;;;;;;;12.88;100.00;101398.75;5079890;28;20032;-81
2022/10/17 00:13:02;;;;;;;14.82;9.38;;;;;;;12.90;100.00;101402.09;5079915;28;20042;-82
2022/10/17 00:15:27;;;;;;;16.67;9.87;;;;;;;12.89;100.00;101396.84;5115086;28;20034;-81
2022/10/17 00:17:53;;;;;;;16.13;9.35;;;;;;;12.91;100.00;101397.47;5097075;28;20035;-81
2022/10/17 00:20:18;;;;;;;15.13;9.97;;;;;;;12.92;100.00;101391.00;5079744;28;20383;-82
2022/10/17 00:22:44;;;;;;;16.60;9.80;;;;;;;12.92;100.00;101391.00;5079970;28;20123;-81
2022/10/17 00:25:10;;;;;;;15.57;10.20;;;;;;;12.92;100.00;101386.38;5096687;28;20529;-81
2022/10/17 00:27:38;;;;;;;15.83;9.53;;;;;;;12.92;100.00;101389.09;5096797;28;20498;-81
2022/10/17 00:30:05;;;;;;;15.52;10.30;;;;;;;12.92;100.00;101386.38;5096572;28;20433;-82
2022/10/17 00:32:30;;;;;;;15.38;10.05;;;;;;;12.92;100.00;101375.47;5114399;28;20511;-82
2022/10/17 00:34:57;;;;;;;14.87;9.73;;;;;;;12.93;100.00;101385.31;5097131;28;20115;-82
2022/10/17 00:37:22;;;;;;;15.27;9.55;;;;;;;12.89;100.00;101378.63;5114709;28;20119;-81
2022/10/17 00:39:48;;;;;;;15.60;9.43;;;;;;;12.91;100.00;101381.13;5096402;28;20070;-82
2022/10/17 00:42:13;;;;;;;17.13;10.52;;;;;;;12.89;100.00;101375.91;5079751;28;20198;-82
2022/10/17 00:44:38;;;;;;;17.77;10.27;;;;;;;12.92;100.00;101382.81;5079790;28;20027;-82
2022/10/17 00:47:12;;;;;;;18.23;10.23;;;;;;;12.90;100.00;101372.16;5096397;28;20035;-82
2022/10/17 00:49:39;;;;;;;19.40;10.43;;;;;;;12.90;100.00;101372.16;5097114;28;20405;-82
2022/10/17 00:52:12;;;;;;;15.83;10.07;;;;;;;12.92;100.00;101369.19;5096100;28;20518;-82
2022/10/17 00:54:41;;;;;;;17.42;11.07;;;;;;;12.96;100.00;101376.72;5114327;28;20031;-81
2022/10/17 00:57:07;;;;;;;16.83;11.13;;;;;;;13.00;100.00;101377.09;5096170;28;20027;-81
2022/10/17 00:59:34;;;;;;;17.83;11.03;;;;;;;13.02;100.00;101374.16;5096402;28;20028;-82
2022/10/17 01:02:04;;;;;;;16.85;10.95;;;;;;;13.06;100.00;101378.13;5096319;28;20447;-81
2022/10/17 01:04:30;;;;;;;20.63;11.25;;;;;;;13.10;100.00;101380.19;5096034;28;20027;-81
2022/10/17 01:06:55;;;;;;;17.95;11.73;;;;;;;13.13;100.00;101382.47;5095851;28;20459;-81
2022/10/17 01:09:21;;;;;;;19.03;12.13;;;;;;;13.16;100.00;101378.47;5114240;28;20034;-81
2022/10/17 01:12:06;;;;;;;18.83;11.60;;;;;;;13.15;100.00;101377.66;5114207;28;20028;-81
2022/10/17 01:14:48;;;;;;;22.20;11.40;;;;;;;13.19;100.00;101369.03;5114210;28;20032;-81
2022/10/17 01:17:20;;;;;;;19.00;11.10;;;;;;;13.23;100.00;101373.81;5096205;28;20392;-81
2022/10/17 01:20:17;;;;;;;20.55;12.30;;;;;;;13.26;100.00;101378.00;5118695;28;20038;-81
2022/10/17 01:22:50;;;;;;;16.50;11.27;;;;;;;13.29;100.00;101381.09;5045293;28;20051;-82
2022/10/17 01:25:16;;;;;;;15.77;11.27;;;;;;;13.31;100.00;101380.88;5100295;28;20024;-81
2022/10/17 01:27:47;;;;;;;18.92;11.63;;;;;;;13.33;100.00;101376.88;5099998;28;20024;-81
2022/10/17 01:30:22;;;;;;;17.80;11.77;;;;;;;13.37;100.00;101368.28;5100117;28;20047;-81
2022/10/17 01:32:56;;;;;;;20.35;11.40;;;;;;;13.38;100.00;101369.97;5100264;28;20032;-82
2022/10/17 01:35:32;;;;;;;19.75;11.88;;;;;;;13.38;100.00;101370.78;5100231;28;20028;-81
2022/10/17 01:38:13;;;;;;;17.73;11.63;;;;;;;13.39;100.00;101372.47;5100420;28;20092;-81
2022/10/17 01:40:49;;;;;;;19.77;11.15;;;;;;;13.38;100.00;101362.63;5118455;28;20039;-81
2022/10/17 01:43:59;;;;;;;15.93;10.90;;;;;;;13.34;100.00;101361.38;5118065;28;20475;-82
2022/10/17 01:46:40;;;;;;;19.27;11.45;;;;;;;13.36;100.00;101359.28;5015012;28;20474;-81
2022/10/17 01:49:08;;;;;;;18.17;11.23;;;;;;;13.38;100.00;101357.16;5095234;28;20391;-81
2022/10/17 01:51:42;;;;;;;25.02;12.73;;;;;;;13.39;100.00;101356.13;5099163;28;20073;-82
2022/10/17 01:54:19;;;;;;;19.85;11.40;;;;;;;13.41;100.00;101362.19;5100452;28;20034;-82
2022/10/17 01:56:47;;;;;;;18.97;11.57;;;;;;;13.43;100.00;101370.94;5118301;28;20057;-81
2022/10/17 01:59:21;;;;;;;19.20;11.75;;;;;;;13.45;100.00;101362.56;5083154;28;20031;-81
2022/10/17 02:01:51;;;;;;;18.20;11.35;;;;;;;13.53;100.00;101358.75;5118259;28;20031;-82
2022/10/17 02:04:17;;;;;;;25.00;12.10;;;;;;;13.57;100.00;101352.63;5099594;28;20035;-82
2022/10/17 02:06:42;;;;;;;14.80;10.97;;;;;;;13.59;100.00;101344.22;5082347;28;20024;-82
2022/10/17 02:09:22;;;;;;;19.10;12.15;;;;;;;13.57;100.00;101351.75;5117554;28;20035;-82
2022/10/17 02:12:16;;;;;;;19.33;10.93;;;;;;;13.55;100.00;101345.72;5099228;28;20031;-82
2022/10/17 02:15:07;;;;;;;19.87;11.00;;;;;;;13.60;100.00;101337.72;5099216;28;20039;-82
2022/10/17 02:17:45;;;;;;;23.55;10.60;;;;;;;13.60;100.00;101337.72;5099094;28;20118;-82
2022/10/17 02:20:30;;;;;;;21.30;10.93;;;;;;;13.64;100.00;101336.19;5099120;28;20110;-82
2022/10/17 02:23:22;;;;;;;15.35;10.77;;;;;;;13.64;100.00;101339.75;5099359;28;20015;-82
2022/10/17 02:25:56;;;;;;;17.38;11.18;;;;;;;13.71;100.00;101339.69;5098847;28;20035;-82
2022/10/17 02:28:40;;;;;;;17.77;10.57;;;;;;;13.71;100.00;101347.03;5097867;28;20032;-82
2022/10/17 02:31:53;;;;;;;16.85;10.63;;;;;;;13.78;100.00;101336.91;5098757;28;20090;-82
2022/10/17 02:34:24;;;;;;;21.20;10.68;;;;;;;13.87;100.00;101341.00;4998011;28;20171;-82
2022/10/17 02:36:58;;;;;;;14.45;9.98;;;;;;;13.93;100.00;101350.19;4998730;28;20034;-81
2022/10/17 02:39:26;;;;;;;21.73;11.13;;;;;;;13.96;100.00;101345.09;5078212;28;20043;-81
2022/10/17 02:41:55;;;;;;;16.10;10.17;;;;;;;14.00;100.00;101343.59;5117414;28;20448;-82
2022/10/17 02:44:22;;;;;;;18.17;10.45;;;;;;;14.02;100.00;101337.91;5098442;28;20032;-82
2022/10/17 02:46:54;;;;;;;22.27;10.88;;;;;;;14.07;100.00;101342.69;5098350;28;20027;-81
2022/10/17 02:49:28;;;;;;;19.23;10.27;;;;;;;14.08;100.00;101341.63;5098184;28;20390;-82
2022/10/17 02:52:14;;;;;;;13.88;9.95;;;;;;;14.07;100.00;101338.06;5098727;28;20028;-83
2022/10/17 02:54:46;;;;;;;16.90;10.37;;;;;;;14.04;100.00;101336.63;5116685;28;20039;-83
2022/10/17 02:57:26;;;;;;;15.52;10.10;;;;;;;13.99;100.00;101346.53;5116875;28;20460;-84
2022/10/17 02:59:52;;;;;;;19.83;10.48;;;;;;;14.00;100.00;101340.03;5098654;28;20232;-82
2022/10/17 03:02:18;;;;;;;17.35;10.10;;;;;;;14.02;100.00;101346.09;5116451;28;20495;-82
2022/10/17 03:04:45;;;;;;;17.50;9.70;;;;;;;14.01;100.00;101338.97;5097934;28;20110;-82
2022/10/17 03:07:10;;;;;;;12.25;9.55;;;;;;;14.03;100.00;101337.69;5098033;28;20024;-81
2022/10/17 03:09:35;;;;;;;15.47;9.67;;;;;;;14.03;100.00;101334.13;5081154;28;20112;-82
2022/10/17 03:12:01;;;;;;;14.67;9.23;;;;;;;14.12;100.00;101340.13;5081131;28;20036;-81
2022/10/17 03:14:26;;;;;;;14.07;9.47;;;;;;;14.16;100.00;101350.34;5081107;28;20027;-81
2022/10/17 03:16:52;;;;;;;13.43;9.80;;;;;;;14.13;100.00;101330.84;5097945;28;20031;-82
2022/10/17 03:19:17;;;;;;;18.03;9.77;;;;;;;14.13;100.00;101339.88;5098338;28;20031;-84
2022/10/17 03:21:42;;;;;;;17.93;9.90;;;;;;;14.14;100.00;101347.03;5097786;28;20043;-83
2022/10/17 03:24:08;;;;;;;15.70;9.10;;;;;;;14.11;100.00;101347.44;5080884;28;20387;-81
2022/10/17 03:26:33;;;;;;;12.63;9.37;;;;;;;14.12;100.00;101348.31;5080756;28;20202;-82
2022/10/17 03:28:58;;;;;;;12.93;9.45;;;;;;;14.11;100.00;101344.72;5097471;28;20047;-82
2022/10/17 03:31:24;;;;;;;15.03;9.27;;;;;;;14.10;100.00;101344.94;5097723;28;20077;-82
2022/10/17 03:33:49;;;;;;;14.10;9.80;;;;;;;14.09;100.00;101341.41;5080996;28;20361;-82
2022/10/17 03:36:17;;;;;;;12.50;9.23;;;;;;;14.09;100.00;101344.13;5097657;28;20027;-83
2022/10/17 03:38:43;;;;;;;15.63;9.23;;;;;;;14.11;100.00;101342.00;5115745;28;20106;-84
2022/10/17 03:41:09;;;;;;;14.13;9.38;;;;;;;14.12;100.00;101345.56;5096601;28;20059;-84
2022/10/17 03:43:35;;;;;;;11.63;8.60;;;;;;;14.13;100.00;101339.88;5115393;28;20032;-84
2022/10/17 03:46:00;;;;;;;17.85;9.02;;;;;;;14.14;100.00;101337.97;5080925;28;20034;-84
2022/10/17 03:48:27;;;;;;;14.33;9.53;;;;;;;14.17;100.00;101332.06;5097246;28;20032;-84
2022/10/17 03:51:05;;;;;;;15.10;8.90;;;;;;;14.17;100.00;101326.63;5115467;28;20032;-81
2022/10/17 03:53:31;;;;;;;12.32;8.63;;;;;;;14.20;100.00;101323.44;5097390;28;20028;-82
2022/10/17 03:56:08;;;;;;;20.13;9.03;;;;;;;14.21;100.00;101327.84;5115264;28;20085;-82
2022/10/17 03:58:33;;;;;;;14.10;9.57;;;;;;;14.24;100.00;101330.09;5115417;28;20036;-82
2022/10/17 04:01:04;;;;;;;17.37;9.17;;;;;;;14.29;100.00;101334.88;5080679;28;20031;-82
2022/10/17 04:03:29;;;;;;;17.70;9.38;;;;;;;14.32;100.00;101339.88;5115322;28;20023;-82
2022/10/17 04:05:58;;;;;;;15.13;8.60;;;;;;;14.35;100.00;101342.13;5079958;28;20549;-81
2022/10/17 04:08:24;;;;;;;11.82;8.75;;;;;;;14.41;100.00;101343.13;5079954;28;20356;-81
2022/10/17 04:10:49;;;;;;;13.82;8.57;;;;;;;14.48;100.00;101352.94;5097048;28;20056;-82
2022/10/17 04:13:15;;;;;;;12.00;8.60;;;;;;;14.55;100.00;101352.81;5097193;28;20032;-82
2022/10/17 04:15:40;;;;;;;11.33;8.13;;;;;;;14.59;100.00;101347.75;5080409;28;20044;-82
2022/10/17 04:18:06;;;;;;;11.40;8.10;;;;;;;14.59;100.00;101361.41;5096992;28;20506;-82
2022/10/17 04:20:33;;;;;;;12.13;8.18;;;;;;;14.55;100.00;101350.09;5096731;28;20055;-82
2022/10/17 04:22:59;;;;;;;11.90;8.20;;;;;;;14.55;100.00;101353.66;5079241;28;20042;-82
2022/10/17 04:25:24;;;;;;;11.88;7.82;;;;;;;14.58;100.00;101368.75;5096353;28;20102;-82
2022/10/17 04:27:50;;;;;;;14.53;8.77;;;;;;;14.56;100.00;101370.88;5079725;28;20407;-82
2022/10/17 04:30:15;;;;;;;11.80;8.27;;;;;;;14.58;100.00;101371.47;5079122;28;20487;-82
2022/10/17 04:32:41;;;;;;;13.45;8.13;;;;;;;14.54;100.00;101371.13;5096461;28;20035;-82
2022/10/17 04:35:07;;;;;;;12.73;9.30;;;;;;;14.55;100.00;101369.22;5080373;28;20038;-82
2022/10/17 04:37:33;;;;;;;9.00;7.75;;;;;;;14.53;100.00;101372.16;5096434;28;20027;-81
2022/10/17 04:39:58;;;;;;;16.07;8.13;;;;;;;14.51;100.00;101379.78;5079108;28;20059;-82
2022/10/17 04:42:23;;;;;;;15.88;8.18;;;;;;;14.48;100.00;101391.16;5096461;28;20028;-82
2022/10/17 04:44:49;;;;;;;13.80;8.13;;;;;;;14.49;100.00;101391.97;5114780;28;20463;-82
2022/10/17 04:47:14;;;;;;;15.60;8.20;;;;;;;14.48;100.00;101391.16;5096716;28;20027;-82
2022/10/17 04:49:39;;;;;;;14.33;8.07;;;;;;;14.49;100.00;101397.44;5079371;28;20071;-81
2022/10/17 04:52:05;;;;;;;12.30;7.60;;;;;;;14.50;100.00;101399.94;5095739;28;20387;-82
2022/10/17 04:54:30;;;;;;;12.40;8.40;;;;;;;14.53;100.00;101407.66;5079226;28;20080;-82
2022/10/17 04:56:56;;;;;;;13.50;7.87;;;;;;;14.54;100.00;101408.50;5079205;28;20062;-82
2022/10/17 04:59:21;;;;;;;10.90;7.10;;;;;;;14.54;100.00;101403.88;5096185;28;20277;-82
2022/10/17 05:01:48;;;;;;;10.73;7.70;;;;;;;14.55;100.00;101413.72;5078926;28;20383;-82
2022/10/17 05:04:13;;;;;;;13.68;7.30;;;;;;;14.59;100.00;101411.38;5114229;28;20020;-82
2022/10/17 05:06:39;;;;;;;16.40;7.17;;;;;;;14.65;100.00;101409.66;5078979;28;20038;-82
2022/10/17 05:09:04;;;;;;;13.23;7.37;;;;;;;14.68;100.00;101412.78;5114754;28;20088;-82
2022/10/17 05:11:29;;;;;;;14.13;7.80;;;;;;;14.70;100.00;101402.47;5079075;28;20405;-81
2022/10/17 05:13:58;;;;;;;12.30;7.17;;;;;;;14.74;100.00;101394.63;5095939;28;20123;-82
2022/10/17 05:16:24;;;;;;;9.32;7.05;;;;;;;14.73;100.00;101401.16;5095830;28;20020;-84
2022/10/17 05:18:51;;;;;;;12.90;7.15;;;;;;;14.76;100.00;101408.06;5096189;28;20042;-83
2022/10/17 05:21:17;;;;;;;11.88;7.07;;;;;;;14.80;100.00;101410.09;5114013;28;20027;-84
2022/10/17 05:23:42;;;;;;;8.33;6.50;;;;;;;14.89;100.00;101410.63;5078579;28;20039;-83
2022/10/17 05:26:10;;;;;;;7.63;6.60;;;;;;;14.93;100.00;101416.47;5095385;28;20123;-83
2022/10/17 05:28:36;;;;;;;10.90;6.83;;;;;;;14.97;100.00;101418.50;5079575;28;20039;-83
2022/10/17 05:31:06;;;;;;;11.13;6.90;;;;;;;15.04;100.00;101426.59;5114356;28;20537;-82
2022/10/17 05:33:32;;;;;;;12.77;6.83;;;;;;;15.07;100.00;101428.88;5095752;28;20289;-83
2022/10/17 05:35:58;;;;;;;7.28;6.43;;;;;;;15.09;100.00;101418.56;5079048;28;20080;-85
2022/10/17 05:38:24;;;;;;;9.82;6.60;;;;;;;15.09;100.00;101427.56;5095627;28;20027;-85
2022/10/17 05:40:49;;;;;;;12.27;6.40;;;;;;;15.14;100.00;101426.06;5079165;28;20035;-84
2022/10/17 05:43:15;;;;;;;10.45;6.05;;;;;;;15.17;100.00;101434.63;5078605;28;20497;-84
2022/10/17 05:45:40;;;;;;;11.20;5.97;;;;;;;15.21;100.00;101437.72;5113704;28;20074;-82
2022/10/17 05:48:05;;;;;;;14.83;6.37;;;;;;;15.23;100.00;101438.31;5078410;28;20077;-83
2022/10/17 05:50:31;;;;;;;13.90;6.43;;;;;;;15.23;100.00;101444.59;5078559;28;20027;-84
2022/10/17 05:52:56;;;;;;;11.57;6.18;;;;;;;15.24;100.00;101440.81;5095578;28;20027;-84
2022/10/17 05:55:22;;;;;;;9.67;6.40;;;;;;;15.30;100.00;101433.59;5095202;28;20027;-84
2022/10/17 05:57:49;;;;;;;8.30;5.77;;;;;;;15.31;100.00;101440.75;5095601;28;20020;-84
2022/10/17 06:00:14;;;;;;;9.57;6.63;;;;;;;15.34;100.00;101442.16;5095618;28;20277;-84
2022/10/17 06:02:41;;;;;;;9.93;6.10;;;;;;;15.34;100.00;101436.69;5095930;28;20042;-84
2022/10/17 06:05:06;;;;;;;8.07;6.45;;;;;;;15.35;100.00;101436.44;5081148;28;20031;-84
2022/10/17 06:07:32;;;;;;;11.87;6.07;;;;;;;15.35;100.00;101430.97;5082204;28;20059;-84
2022/10/17 06:09:57;;;;;;;13.07;6.13;;;;;;;15.37;100.00;101441.72;5083243;28;20118;-83
2022/10/17 06:12:23;;;;;;;9.32;6.47;;;;;;;15.36;100.00;101437.31;5099075;28;20482;-83
2022/10/17 06:14:49;;;;;;;11.67;7.53;;;;;;;15.41;100.00;101440.16;5117338;28;20027;-84
2022/10/17 06:17:14;;;;;;;21.27;7.40;;;;;;;15.42;100.00;101445.38;5082032;28;20042;-84
2022/10/17 06:19:40;;;;;;;10.15;6.25;;;;;;;15.45;100.00;101452.31;5081696;28;20494;-84
2022/10/17 06:22:06;;;;;;;13.00;6.10;;;;;;;15.48;100.00;101451.00;5098281;28;20073;-86
2022/10/17 06:24:31;;;;;;;6.63;5.65;;;;;;;15.52;100.00;101449.47;5098315;28;20034;-87
2022/10/17 06:26:59;;;;;;;9.13;5.77;;;;;;;15.51;100.00;101454.09;5097811;28;20035;-88
2022/10/17 06:29:24;;;;;;;11.35;5.63;;;;;;;15.55;100.00;101447.09;5098516;28;20121;-84
2022/10/17 06:31:50;;;;;;;6.77;5.20;;;;;;;15.58;100.00;101451.28;5098754;28;20036;-84
2022/10/17 06:34:15;;;;;;;8.68;5.40;;;;;;;15.60;100.00;101449.97;5098562;28;20078;-84
2022/10/17 06:36:41;;;;;;;11.83;5.87;;;;;;;15.61;100.00;101454.38;5098396;28;20035;-84
2022/10/17 06:39:06;;;;;;;10.57;5.70;;;;;;;15.63;100.00;101448.66;5081589;28;20131;-84
2022/10/17 06:41:32;;;;;;;7.05;5.45;;;;;;;15.69;100.00;101466.03;5098507;28;20106;-84
2022/10/17 06:43:57;;;;;;;10.90;6.23;;;;;;;15.70;100.00;101454.84;5098128;28;20055;-84
2022/10/17 06:46:25;;;;;;;10.20;5.33;;;;;;;15.77;100.00;101473.91;5098394;28;20031;-84
2022/10/17 06:48:51;;;;;;;11.38;6.32;;;;;;;15.81;100.00;101472.41;5116634;28;20111;-84
2022/10/17 06:51:16;;;;;;;14.57;5.30;;;;;;;15.86;100.00;101474.44;5098432;28;20059;-83
2022/10/17 06:53:42;;;;;;;10.93;5.33;;;;;;;15.90;100.00;101472.88;5081588;28;20146;-83
2022/10/17 06:56:09;;;;;;;6.60;5.35;;;;;;;15.95;100.00;101476.56;5098119;28;20031;-84
2022/10/17 06:58:40;;;;;;;10.53;5.30;;;;;;;16.00;100.00;101466.84;5098145;28;20073;-84
2022/10/17 07:01:08;;;;;;;10.77;5.50;;;;;;;16.05;100.00;101473.25;5098183;28;20027;-82
2022/10/17 07:03:33;;;;;;;7.88;5.53;;;;;;;16.12;100.00;101470.41;5098804;28;20355;-82
2022/10/17 07:05:59;;;;;;;12.80;5.40;;;;;;;16.16;100.00;101481.72;5098352;28;20023;-82
2022/10/17 07:08:25;;;;;;;7.55;5.07;;;;;;;16.17;100.00;101486.13;5064494;28;20424;-82
2022/10/17 07:10:50;;;;;;;8.87;5.37;;;;;;;16.18;100.00;101485.91;5115894;28;20593;-82
2022/10/17 07:13:17;;;;;;;9.00;5.50;;;;;;;16.22;100.00;101481.59;5080783;28;20110;-81
2022/10/17 07:15:43;;;;;;;8.33;4.90;;;;;;;16.26;100.00;101481.97;5079985;28;20641;-81
2022/10/17 07:18:09;;;;;;;13.43;5.88;;;;;;;16.28;100.00;101480.66;5098374;28;20024;-81
2022/10/17 07:20:34;;;;;;;9.47;5.60;;;;;;;16.30;100.00;101486.72;5097492;28;20545;-82
2022/10/17 07:23:00;;;;;;;9.13;5.30;;;;;;;16.31;100.00;101490.28;5116141;28;20481;-82
2022/10/17 07:25:25;;;;;;;7.47;4.97;;;;;;;16.30;100.00;101494.94;5116121;28;20379;-81
2022/10/17 07:27:52;;;;;;;12.77;5.40;;;;;;;16.32;100.00;101497.44;5097540;28;20154;-84
2022/10/17 07:30:18;;;;;;;12.10;4.88;;;;;;;16.36;100.00;101506.84;5097237;28;20403;-82
2022/10/17 07:32:44;;;;;;;8.30;4.72;;;;;;;16.34;100.00;101514.44;5097377;28;20054;-82
2022/10/17 07:35:12;;;;;;;15.63;5.20;;;;;;;16.33;100.00;101536.59;5097663;28;20027;-83
2022/10/17 07:37:38;;;;;;;6.47;4.50;;;;;;;16.29;100.00;101556.25;5097641;28;20118;-82
2022/10/17 07:40:06;;;;;;;9.27;5.15;;;;;;;16.14;100.00;101577.78;5097490;28;20479;-83
2022/10/17 07:42:40;;;;;;;7.70;5.00;;;;;;;15.96;100.00;101595.94;5080597;28;20122;-82
2022/10/17 07:45:06;;;;;;;8.63;5.30;;;;;;;15.87;100.00;101621.13;5097108;28;20031;-82
2022/10/17 07:47:34;;;;;;;11.30;5.60;;;;;;;15.78;100.00;101639.75;5080470;28;20039;-82
2022/10/17 07:50:00;;;;;;;11.40;5.80;;;;;;;15.73;100.00;101640.41;5080751;28;20088;-82
2022/10/17 07:52:26;;;;;;;11.88;6.28;;;;;;;15.64;100.00;101638.25;5097345;28;20110;-83
2022/10/17 07:54:51;;;;;;;11.50;6.27;;;;;;;15.56;100.00;101650.31;5096972;28;20062;-83
2022/10/17 07:57:16;;;;;;;11.00;6.50;;;;;;;15.66;100.00;101642.41;5115264;28;20093;-82
2022/10/17 07:59:42;;;;;;;21.27;6.20;;;;;;;15.58;100.00;101640.81;5096934;28;20119;-82
2022/10/17 08:02:30;;;;;;;14.73;6.67;;;;;;;15.54;100.00;101633.31;5097139;28;20032;-81
2022/10/17 08:04:55;;;;;;;11.93;7.07;;;;;;;15.50;100.00;101641.16;5115213;28;20031;-81
2022/10/17 08:07:21;;;;;;;12.03;6.97;;;;;;;15.45;100.00;101630.03;5080823;28;20043;-81
2022/10/17 08:09:47;;;;;;;10.02;7.38;;;;;;;15.44;100.00;101631.97;5080614;28;20031;-81
2022/10/17 08:12:14;;;;;;;13.97;7.90;;;;;;;15.44;100.00;101631.09;5097019;28;20034;-81
2022/10/17 08:14:40;;;;;;;13.32;8.25;;;;;;;15.42;100.00;101649.66;5115651;28;20102;-82
2022/10/17 08:17:05;;;;;;;15.13;8.00;;;;;;;15.40;100.00;101662.72;5079716;28;20116;-81
2022/10/17 08:19:31;;;;;;;13.30;8.40;;;;;;;15.38;100.00;101673.88;5096636;28;20066;-81
2022/10/17 08:21:58;;;;;;;19.60;8.70;;;;;;;15.39;100.00;101705.63;5096875;28;20027;-81
2022/10/17 08:24:23;;;;;;;10.38;7.90;;;;;;;15.37;100.00;101709.66;5096907;28;20053;-81
2022/10/17 08:26:48;;;;;;;14.37;8.97;;;;;;;15.36;100.00;101700.59;5114508;28;20039;-81
2022/10/17 08:29:15;;;;;;;19.10;10.10;;;;;;;15.37;100.00;101691.34;5096401;28;20491;-81
2022/10/17 08:31:41;;;;;;;23.95;9.75;;;;;;;15.36;100.00;101707.97;5096724;28;20432;-80
2022/10/17 08:34:07;;;;;;;15.75;9.52;;;;;;;15.36;100.00;101710.72;5096576;28;20035;-80
2022/10/17 08:36:32;;;;;;;18.70;9.97;;;;;;;15.34;100.00;101693.69;5096510;28;20044;-81
2022/10/17 08:38:58;;;;;;;19.73;9.63;;;;;;;15.37;100.00;101701.47;5114895;28;20717;-81
2022/10/17 08:41:32;;;;;;;18.40;9.93;;;;;;;15.38;100.00;101700.38;5079471;28;20031;-80
2022/10/17 08:44:16;;;;;;;18.88;10.00;;;;;;;15.40;100.00;101720.16;5096596;28;20104;-81
2022/10/17 08:46:45;;;;;;;17.67;9.35;;;;;;;15.39;100.00;101697.41;5096724;28;20070;-81
2022/10/17 08:49:45;;;;;;;16.43;9.50;;;;;;;15.36;100.00;101697.03;5114476;28;20110;-80
2022/10/17 08:52:20;;;;;;;19.67;9.80;;;;;;;15.40;100.00;101690.06;5094511;28;20071;-82
2022/10/17 08:54:47;;;;;;;18.20;10.60;;;;;;;15.43;100.00;101689.63;5096628;28;20539;-82
2022/10/17 08:57:15;;;;;;;13.25;10.02;;;;;;;15.45;100.00;101684.75;5114176;28;20031;-82
2022/10/17 08:59:41;;;;;;;18.88;10.55;;;;;;;15.44;100.00;101683.91;5113966;28;20027;-80
2022/10/17 09:02:26;;;;;;;19.17;9.80;;;;;;;15.46;100.00;101691.03;5096273;28;20039;-79
2022/10/17 09:05:20;;;;;;;13.85;9.88;;;;;;;15.44;100.00;101702.19;5096555;28;20463;-80
2022/10/17 09:08:21;;;;;;;20.35;10.68;;;;;;;15.41;100.00;101719.91;5082211;28;20114;-80
2022/10/17 09:10:52;;;;;;;17.63;9.80;;;;;;;15.42;100.00;101718.00;5042777;28;20027;-80
2022/10/17 09:13:42;;;;;;;21.52;10.23;;;;;;;15.40;100.00;101745.59;5096729;28;20020;-80
2022/10/17 09:16:40;;;;;;;18.83;10.50;;;;;;;15.37;100.00;101751.50;5114457;28;20028;-80
2022/10/17 09:19:20;;;;;;;20.17;9.48;;;;;;;15.36;100.00;101771.69;5088414;28;20047;-80
2022/10/17 09:22:03;;;;;;;20.27;10.50;;;;;;;15.34;100.00;101749.22;5114010;28;20035;-82
2022/10/17 09:25:10;;;;;;;17.00;11.07;;;;;;;15.37;100.00;101764.34;5096534;28;20022;-82
2022/10/17 09:27:41;;;;;;;19.83;10.45;;;;;;;15.36;100.00;101724.38;5031117;28;20504;-82
2022/10/17 09:30:37;;;;;;;20.93;10.67;;;;;;;15.38;100.00;101683.97;5097874;28;20036;-82
2022/10/17 09:33:15;;;;;;;23.20;11.57;;;;;;;15.49;100.00;101655.88;5096454;28;20040;-82
2022/10/17 09:35:41;;;;;;;17.48;11.20;;;;;;;15.53;100.00;101658.97;5114570;28;20023;-82
2022/10/17 09:38:15;;;;;;;19.20;12.52;;;;;;;15.56;100.00;101678.50;5095323;28;20026;-82
2022/10/17 09:40:40;;;;;;;24.27;11.65;;;;;;;15.55;100.00;101695.97;5100081;28;20024;-82
2022/10/17 09:43:10;;;;;;;23.57;11.67;;;;;;;15.53;100.00;101714.53;5082633;28;20062;-82
2022/10/17 09:45:43;;;;;;;17.40;11.00;;;;;;;15.52;100.00;101720.22;5118432;28;20064;-82
2022/10/17 09:48:12;;;;;;;23.00;11.40;;;;;;;15.55;100.00;101730.72;5099821;28;20031;-82
2022/10/17 09:50:38;;;;;;;24.50;12.03;;;;;;;15.55;100.00;101720.59;5099668;28;20039;-82
2022/10/17 09:53:38;;;;;;;21.83;12.07;;;;;;;15.56;100.00;101722.28;5117568;28;20062;-82
2022/10/17 09:56:11;;;;;;;18.08;10.93;;;;;;;15.63;100.00;101697.56;5084952;28;20383;-82
2022/10/17 09:58:48;;;;;;;20.25;12.20;;;;;;;15.71;100.00;101696.44;5117755;28;20027;-82
2022/10/17 10:01:25;;;;;;;21.13;11.55;;;;;;;15.75;100.00;101706.69;5099389;28;20031;-83
2022/10/17 10:04:12;;;;;;;19.20;11.70;;;;;;;15.79;100.00;101704.34;5100122;28;20467;-83
2022/10/17 10:06:39;;;;;;;23.17;12.27;;;;;;;15.85;100.00;101705.34;5099477;28;20487;-82
2022/10/17 10:09:06;;;;;;;18.75;11.23;;;;;;;15.89;100.00;101703.81;5117784;28;20186;-83
2022/10/17 10:11:54;;;;;;;23.50;11.02;;;;;;;15.84;100.00;101720.09;5082058;28;20031;-83
2022/10/17 10:14:34;;;;;;;21.30;10.50;;;;;;;15.77;100.00;101722.88;5117142;28;20023;-82
2022/10/17 10:17:01;;;;;;;16.60;9.97;;;;;;;15.71;100.00;101732.84;5099421;28;20027;-82
2022/10/17 10:19:29;;;;;;;21.05;10.70;;;;;;;15.71;100.00;101735.56;5082010;28;20036;-82
2022/10/17 10:22:16;;;;;;;20.88;10.95;;;;;;;15.71;100.00;101752.00;5099180;28;20027;-82
2022/10/17 10:24:41;;;;;;;18.08;9.52;;;;;;;15.75;100.00;101760.56;5098538;28;20029;-83
2022/10/17 10:27:14;;;;;;;14.80;9.87;;;;;;;15.76;100.00;101762.25;5081696;28;20104;-82
2022/10/17 10:29:49;;;;;;;18.48;9.52;;;;;;;15.75;100.00;101775.09;5098575;28;20047;-82
2022/10/17 10:32:23;;;;;;;16.80;9.77;;;;;;;15.79;100.00;101770.03;5098775;28;20031;-82
2022/10/17 10:34:56;;;;;;;16.15;9.38;;;;;;;15.91;100.00;101768.19;5116752;28;20039;-82
2022/10/17 10:37:26;;;;;;;16.87;9.67;;;;;;;16.00;100.00;101782.41;5098952;28;20020;-83
2022/10/17 10:39:56;;;;;;;19.58;10.35;;;;;;;16.06;100.00;101792.47;5098556;28;20101;-83
2022/10/17 10:42:29;;;;;;;17.52;9.32;;;;;;;15.98;100.00;101803.69;5116826;28;20028;-82
2022/10/17 10:45:01;;;;;;;18.70;8.68;;;;;;;15.96;100.00;101817.63;5098821;28;20082;-83
2022/10/17 10:47:28;;;;;;;18.33;9.57;;;;;;;15.96;100.00;101820.34;5098651;28;20077;-82
2022/10/17 10:50:46;;;;;;;17.47;10.77;;;;;;;15.94;100.00;101821.63;5098104;28;20031;-81
2022/10/17 10:53:14;;;;;;;15.88;9.02;;;;;;;15.90;100.00;101834.09;5057074;28;20059;-80
2022/10/17 10:55:47;;;;;;;14.52;8.10;;;;;;;15.89;100.00;101832.44;5098758;28;20118;-80
2022/10/17 10:58:48;;;;;;;10.40;7.72;;;;;;;15.79;100.00;101827.47;5116230;28;20100;-81
2022/10/17 11:01:27;;;;;;;13.90;8.20;;;;;;;15.82;100.00;101828.94;5097900;28;20032;-80
2022/10/17 11:04:24;;;;;;;15.87;8.97;;;;;;;15.84;100.00;101824.91;5098404;28;20028;-80
2022/10/17 11:06:56;;;;;;;17.48;9.93;;;;;;;15.91;100.00;101825.66;5097887;28;20031;-80
2022/10/17 11:09:36;;;;;;;16.17;9.68;;;;;;;15.93;100.00;101826.28;5116462;28;20471;-81
2022/10/17 11:12:10;;;;;;;18.35;9.50;;;;;;;15.95;100.00;101826.06;5098252;28;20467;-80
2022/10/17 11:14:54;;;;;;;15.68;9.35;;;;;;;16.02;100.00;101834.19;5097916;28;20131;-81
2022/10/17 11:17:46;;;;;;;18.00;9.27;;;;;;;15.94;100.00;101844.41;5098180;28;20132;-81
2022/10/17 11:20:19;;;;;;;14.52;8.82;;;;;;;15.92;100.00;101848.41;5097782;28;20467;-81
2022/10/17 11:22:54;;;;;;;16.65;10.10;;;;;;;15.95;100.00;101851.50;5097756;28;20032;-84